createdAt,value
2018-09-23T00:00:45.716Z,15.13
2018-09-23T00:01:45.731Z,15.19
2018-09-23T00:02:45.935Z,15.13
2018-09-23T00:03:45.644Z,15.13
2018-09-23T00:04:45.612Z,15.19
2018-09-23T00:05:45.685Z,15.19
2018-09-23T00:06:45.695Z,15.19
2018-09-23T00:07:45.687Z,15.19
2018-09-23T00:08:45.828Z,15.19
2018-09-23T00:09:45.734Z,15.19
2018-09-23T00:10:45.621Z,15.19
2018-09-23T00:11:45.867Z,15.19
2018-09-23T00:12:45.625Z,15.19
2018-09-23T00:13:45.775Z,15.13
2018-09-23T00:14:45.822Z,15.19
2018-09-23T00:15:45.641Z,15.19
2018-09-23T00:16:45.649Z,15.19
2018-09-23T00:17:45.639Z,15.13
2018-09-23T00:18:45.719Z,15.13
2018-09-23T00:19:45.879Z,15.13
2018-09-23T00:20:45.597Z,15.13
2018-09-23T00:21:45.845Z,15.13
2018-09-23T00:22:45.870Z,15.13
2018-09-23T00:23:45.612Z,15.06
2018-09-23T00:24:45.621Z,15.06
2018-09-23T00:25:45.729Z,15.06
2018-09-23T00:26:45.634Z,15.06
2018-09-23T00:27:45.713Z,15
2018-09-23T00:28:45.711Z,15
2018-09-23T00:29:45.711Z,15
2018-09-23T00:30:45.618Z,15
2018-09-23T00:31:45.651Z,15
2018-09-23T00:32:45.650Z,14.94
2018-09-23T00:33:45.571Z,14.94
2018-09-23T00:34:45.597Z,14.94
2018-09-23T00:35:45.611Z,14.87
2018-09-23T00:36:45.591Z,14.87
2018-09-23T00:37:45.778Z,14.87
2018-09-23T00:38:45.572Z,14.87
2018-09-23T00:39:45.685Z,14.87
2018-09-23T00:40:45.582Z,14.87
2018-09-23T00:41:45.582Z,14.87
2018-09-23T00:42:45.589Z,14.81
2018-09-23T00:43:45.600Z,14.87
2018-09-23T00:44:45.565Z,14.81
2018-09-23T00:45:45.615Z,14.75
2018-09-23T00:46:45.560Z,14.81
2018-09-23T00:47:45.558Z,14.75
2018-09-23T00:48:45.553Z,14.75
2018-09-23T00:49:45.571Z,14.81
2018-09-23T00:50:45.591Z,14.81
2018-09-23T00:51:45.557Z,14.81
2018-09-23T00:52:45.581Z,14.75
2018-09-23T00:53:45.689Z,14.75
2018-09-23T00:54:45.675Z,14.75
2018-09-23T00:55:45.971Z,14.75
2018-09-23T00:56:45.603Z,14.75
2018-09-23T00:57:45.686Z,14.75
2018-09-23T00:58:45.565Z,14.75
2018-09-23T00:59:45.545Z,14.69
2018-09-23T01:00:45.729Z,14.75
2018-09-23T01:01:45.566Z,14.75
2018-09-23T01:02:45.540Z,14.69
2018-09-23T01:03:45.627Z,14.69
2018-09-23T01:04:45.580Z,14.69
2018-09-23T01:05:45.770Z,14.75
2018-09-23T01:06:45.549Z,14.75
2018-09-23T01:07:45.672Z,14.63
2018-09-23T01:08:45.574Z,14.63
2018-09-23T01:09:45.726Z,14.63
2018-09-23T01:10:46.112Z,14.63
2018-09-23T01:11:45.760Z,14.56
2018-09-23T01:12:45.623Z,14.56
2018-09-23T01:13:45.572Z,14.56
2018-09-23T01:14:45.678Z,14.5
2018-09-23T01:15:45.556Z,14.56
2018-09-23T01:16:45.683Z,14.56
2018-09-23T01:17:45.614Z,14.5
2018-09-23T01:18:45.508Z,14.5
2018-09-23T01:19:45.513Z,14.44
2018-09-23T01:20:45.625Z,14.44
2018-09-23T01:21:45.555Z,14.44
2018-09-23T01:22:45.599Z,14.44
2018-09-23T01:23:45.537Z,14.44
2018-09-23T01:24:45.511Z,14.44
2018-09-23T01:25:45.518Z,14.44
2018-09-23T01:26:45.534Z,14.44
2018-09-23T01:27:45.589Z,14.44
2018-09-23T01:28:45.554Z,14.38
2018-09-23T01:29:45.535Z,14.38
2018-09-23T01:30:45.627Z,14.38
2018-09-23T01:31:45.529Z,14.31
2018-09-23T01:32:45.570Z,14.31
2018-09-23T01:33:45.712Z,14.31
2018-09-23T01:34:45.526Z,14.25
2018-09-23T01:35:45.593Z,14.31
2018-09-23T01:36:45.575Z,14.25
2018-09-23T01:37:45.516Z,14.25
2018-09-23T01:38:45.697Z,14.25
2018-09-23T01:39:45.553Z,14.25
2018-09-23T01:40:45.560Z,14.25
2018-09-23T01:41:46.202Z,14.19
2018-09-23T01:42:45.599Z,14.19
2018-09-23T01:43:45.517Z,14.13
2018-09-23T01:44:45.615Z,14.19
2018-09-23T01:45:45.483Z,14.13
2018-09-23T01:46:45.542Z,14.13
2018-09-23T01:47:45.479Z,14.13
2018-09-23T01:48:46.380Z,14.13
2018-09-23T01:49:45.600Z,14.13
2018-09-23T01:50:45.559Z,14.13
2018-09-23T01:51:45.478Z,14.06
2018-09-23T01:52:45.607Z,14.06
2018-09-23T01:53:45.473Z,14.06
2018-09-23T01:54:45.483Z,14.06
2018-09-23T01:55:45.642Z,14.06
2018-09-23T01:56:45.490Z,14
2018-09-23T01:57:45.532Z,14.06
2018-09-23T01:58:45.482Z,14
2018-09-23T01:59:45.739Z,14
2018-09-23T02:00:45.474Z,14
2018-09-23T02:01:45.683Z,13.94
2018-09-23T02:02:45.475Z,14
2018-09-23T02:03:45.519Z,13.94
2018-09-23T02:04:45.460Z,13.94
2018-09-23T02:05:45.479Z,13.94
2018-09-23T02:06:45.472Z,13.94
2018-09-23T02:07:45.541Z,13.94
2018-09-23T02:08:45.494Z,13.94
2018-09-23T02:09:45.432Z,13.88
2018-09-23T02:10:45.533Z,13.88
2018-09-23T02:11:45.478Z,13.88
2018-09-23T02:12:45.483Z,13.88
2018-09-23T02:13:45.480Z,13.88
2018-09-23T02:14:45.530Z,13.88
2018-09-23T02:15:45.568Z,13.88
2018-09-23T02:16:45.504Z,13.88
2018-09-23T02:17:45.559Z,13.88
2018-09-23T02:18:45.933Z,13.88
2018-09-23T02:19:45.474Z,13.88
2018-09-23T02:20:45.510Z,13.88
2018-09-23T02:21:45.480Z,13.94
2018-09-23T02:22:45.623Z,13.88
2018-09-23T02:23:45.707Z,13.88
2018-09-23T02:24:45.440Z,13.88
2018-09-23T02:25:45.472Z,13.88
2018-09-23T02:26:45.500Z,13.88
2018-09-23T02:27:46.009Z,13.88
2018-09-23T02:28:46.209Z,13.88
2018-09-23T02:29:45.446Z,13.81
2018-09-23T02:30:45.421Z,13.81
2018-09-23T02:31:45.452Z,13.88
2018-09-23T02:32:45.490Z,13.81
2018-09-23T02:33:45.579Z,13.81
2018-09-23T02:34:45.593Z,13.81
2018-09-23T02:35:45.417Z,13.81
2018-09-23T02:36:45.408Z,13.81
2018-09-23T02:37:45.463Z,13.81
2018-09-23T02:38:45.457Z,13.75
2018-09-23T02:39:45.631Z,13.75
2018-09-23T02:40:45.422Z,13.81
2018-09-23T02:41:45.453Z,13.75
2018-09-23T02:42:45.582Z,13.81
2018-09-23T02:43:45.438Z,13.81
2018-09-23T02:44:45.460Z,13.75
2018-09-23T02:45:45.470Z,13.81
2018-09-23T02:46:45.475Z,13.81
2018-09-23T02:47:45.558Z,13.75
2018-09-23T02:48:45.375Z,13.75
2018-09-23T02:49:45.438Z,13.75
2018-09-23T02:50:45.549Z,13.75
2018-09-23T02:51:45.398Z,13.75
2018-09-23T02:52:45.439Z,13.69
2018-09-23T02:53:45.496Z,13.69
2018-09-23T02:54:45.567Z,13.69
2018-09-23T02:55:45.385Z,13.69
2018-09-23T02:56:45.439Z,13.69
2018-09-23T02:57:45.425Z,13.69
2018-09-23T02:58:45.572Z,13.69
2018-09-23T02:59:45.593Z,13.62
2018-09-23T03:00:45.474Z,13.62
2018-09-23T03:01:45.387Z,13.62
2018-09-23T03:02:45.653Z,13.62
2018-09-23T03:03:45.398Z,13.62
2018-09-23T03:04:45.794Z,13.62
2018-09-23T03:05:45.761Z,13.62
2018-09-23T03:06:45.385Z,13.62
2018-09-23T03:07:46.016Z,13.56
2018-09-23T03:08:45.551Z,13.56
2018-09-23T03:09:45.401Z,13.56
2018-09-23T03:10:45.429Z,13.56
2018-09-23T03:11:45.398Z,13.56
2018-09-23T03:12:45.547Z,13.56
2018-09-23T03:13:45.544Z,13.56
2018-09-23T03:14:45.367Z,13.56
2018-09-23T03:15:45.369Z,13.56
2018-09-23T03:16:45.353Z,13.56
2018-09-23T03:17:45.434Z,13.56
2018-09-23T03:18:45.385Z,13.56
2018-09-23T03:19:45.351Z,13.56
2018-09-23T03:20:45.382Z,13.56
2018-09-23T03:21:45.409Z,13.56
2018-09-23T03:22:45.407Z,13.56
2018-09-23T03:23:45.422Z,13.56
2018-09-23T03:24:45.400Z,13.56
2018-09-23T03:25:45.410Z,13.56
2018-09-23T03:26:45.446Z,13.5
2018-09-23T03:27:45.394Z,13.56
2018-09-23T03:28:45.364Z,13.56
2018-09-23T03:29:45.381Z,13.56
2018-09-23T03:30:45.401Z,13.5
2018-09-23T03:31:45.387Z,13.5
2018-09-23T03:32:45.350Z,13.5
2018-09-23T03:33:45.351Z,13.5
2018-09-23T03:34:45.370Z,13.56
2018-09-23T03:35:45.397Z,13.5
2018-09-23T03:36:45.363Z,13.5
2018-09-23T03:37:45.516Z,13.5
2018-09-23T03:38:45.383Z,13.5
2018-09-23T03:39:45.556Z,13.5
2018-09-23T03:40:45.390Z,13.5
2018-09-23T03:41:45.381Z,13.5
2018-09-23T03:42:45.743Z,13.5
2018-09-23T03:43:45.583Z,13.5
2018-09-23T03:44:45.347Z,13.5
2018-09-23T03:45:45.404Z,13.56
2018-09-23T03:46:45.357Z,13.5
2018-09-23T03:47:45.410Z,13.5
2018-09-23T03:48:45.469Z,13.5
2018-09-23T03:49:45.334Z,13.5
2018-09-23T03:50:45.499Z,13.5
2018-09-23T03:51:45.345Z,13.5
2018-09-23T03:52:45.411Z,13.5
2018-09-23T03:53:46.696Z,13.5
2018-09-23T03:54:45.390Z,13.5
2018-09-23T03:55:45.366Z,13.5
2018-09-23T03:56:45.356Z,13.5
2018-09-23T03:57:45.342Z,13.5
2018-09-23T03:58:45.477Z,13.56
2018-09-23T03:59:45.369Z,13.5
2018-09-23T04:00:45.360Z,13.56
2018-09-23T04:01:45.316Z,13.5
2018-09-23T04:02:45.339Z,13.56
2018-09-23T04:03:45.380Z,13.5
2018-09-23T04:04:45.364Z,13.5
2018-09-23T04:05:45.427Z,13.5
2018-09-23T04:06:45.469Z,13.5
2018-09-23T04:07:45.387Z,13.5
2018-09-23T04:08:45.846Z,13.5
2018-09-23T04:09:45.338Z,13.5
2018-09-23T04:10:45.345Z,13.5
2018-09-23T04:11:45.515Z,13.5
2018-09-23T04:12:45.487Z,13.5
2018-09-23T04:13:45.521Z,13.5
2018-09-23T04:14:45.332Z,13.56
2018-09-23T04:15:45.304Z,13.5
2018-09-23T04:16:45.306Z,13.5
2018-09-23T04:17:45.305Z,13.56
2018-09-23T04:18:45.467Z,13.44
2018-09-23T04:19:45.294Z,13.44
2018-09-23T04:20:45.338Z,13.5
2018-09-23T04:21:45.322Z,13.5
2018-09-23T04:22:45.430Z,13.44
2018-09-23T04:23:45.400Z,13.5
2018-09-23T04:24:45.365Z,13.5
2018-09-23T04:25:46.026Z,13.44
2018-09-23T04:26:45.419Z,13.44
2018-09-23T04:27:45.403Z,13.5
2018-09-23T04:28:45.332Z,13.5
2018-09-23T04:29:45.368Z,13.5
2018-09-23T04:30:45.275Z,13.44
2018-09-23T04:31:45.522Z,13.44
2018-09-23T04:32:45.552Z,13.44
2018-09-23T04:33:45.357Z,13.44
2018-09-23T04:34:45.601Z,13.44
2018-09-23T04:35:45.345Z,13.44
2018-09-23T04:36:45.308Z,13.44
2018-09-23T04:37:45.281Z,13.44
2018-09-23T04:38:45.431Z,13.44
2018-09-23T04:39:45.297Z,13.44
2018-09-23T04:40:45.279Z,13.44
2018-09-23T04:41:45.563Z,13.44
2018-09-23T04:42:45.283Z,13.44
2018-09-23T04:43:45.249Z,13.5
2018-09-23T04:44:45.678Z,13.44
2018-09-23T04:45:45.300Z,13.44
2018-09-23T04:46:45.315Z,13.44
2018-09-23T04:47:45.240Z,13.44
2018-09-23T04:48:45.230Z,13.44
2018-09-23T04:49:45.276Z,13.44
2018-09-23T04:50:45.260Z,13.44
2018-09-23T04:51:45.238Z,13.5
2018-09-23T04:52:45.277Z,13.5
2018-09-23T04:53:45.518Z,13.44
2018-09-23T04:54:45.280Z,13.44
2018-09-23T04:55:45.283Z,13.5
2018-09-23T04:56:45.243Z,13.5
2018-09-23T04:57:45.327Z,13.44
2018-09-23T04:58:45.238Z,13.56
2018-09-23T04:59:45.249Z,13.44
2018-09-23T05:00:45.898Z,13.5
2018-09-23T05:01:45.424Z,13.5
2018-09-23T05:02:45.296Z,13.56
2018-09-23T05:03:45.252Z,13.56
2018-09-23T05:04:45.281Z,13.5
2018-09-23T05:05:45.354Z,13.56
2018-09-23T05:06:45.458Z,13.56
2018-09-23T05:07:45.258Z,13.56
2018-09-23T05:08:49.005Z,13.56
2018-09-23T05:09:45.232Z,13.56
2018-09-23T05:10:45.455Z,13.56
2018-09-23T05:11:46.077Z,13.56
2018-09-23T05:12:45.313Z,13.62
2018-09-23T05:13:45.264Z,13.56
2018-09-23T05:14:45.240Z,13.62
2018-09-23T05:15:45.249Z,13.69
2018-09-23T05:16:45.216Z,13.62
2018-09-23T05:17:45.225Z,13.69
2018-09-23T05:18:45.807Z,13.69
2018-09-23T05:19:45.572Z,13.69
2018-09-23T05:20:45.285Z,13.69
2018-09-23T05:21:45.189Z,13.69
2018-09-23T05:22:45.335Z,13.75
2018-09-23T05:23:45.293Z,13.75
2018-09-23T05:24:45.279Z,13.75
2018-09-23T05:25:45.256Z,13.75
2018-09-23T05:26:45.371Z,13.81
2018-09-23T05:27:45.239Z,13.81
2018-09-23T05:28:45.487Z,13.81
2018-09-23T05:29:45.187Z,13.88
2018-09-23T05:30:45.179Z,13.81
2018-09-23T05:31:45.345Z,13.88
2018-09-23T05:32:45.269Z,13.88
2018-09-23T05:33:45.187Z,13.88
2018-09-23T05:34:45.433Z,13.94
2018-09-23T05:35:45.328Z,13.94
2018-09-23T05:36:45.270Z,13.94
2018-09-23T05:37:45.184Z,13.94
2018-09-23T05:38:45.192Z,14
2018-09-23T05:39:45.244Z,14
2018-09-23T05:40:49.576Z,14.06
2018-09-23T05:41:45.210Z,14.06
2018-09-23T05:42:45.225Z,14.06
2018-09-23T05:43:45.209Z,14.06
2018-09-23T05:44:45.329Z,14.06
2018-09-23T05:45:45.307Z,14.06
2018-09-23T05:46:45.276Z,14.06
2018-09-23T05:47:45.205Z,14.06
2018-09-23T05:48:45.294Z,14.13
2018-09-23T05:49:45.184Z,14.13
2018-09-23T05:50:45.144Z,14.13
2018-09-23T05:51:45.770Z,14.13
2018-09-23T05:52:45.288Z,14.13
2018-09-23T05:53:45.212Z,14.19
2018-09-23T05:54:45.188Z,14.19
2018-09-23T05:55:45.354Z,14.19
2018-09-23T05:56:45.203Z,14.19
2018-09-23T05:57:45.241Z,14.19
2018-09-23T05:58:45.259Z,14.25
2018-09-23T05:59:45.143Z,14.25
2018-09-23T06:00:45.184Z,14.31
2018-09-23T06:01:45.432Z,14.25
2018-09-23T06:02:45.205Z,14.25
2018-09-23T06:03:45.223Z,14.31
2018-09-23T06:04:45.137Z,14.31
2018-09-23T06:05:45.231Z,14.38
2018-09-23T06:06:45.134Z,14.38
2018-09-23T06:07:45.257Z,14.38
2018-09-23T06:08:45.629Z,14.38
2018-09-23T06:09:45.197Z,14.38
2018-09-23T06:10:45.207Z,14.44
2018-09-23T06:11:45.136Z,14.44
2018-09-23T06:12:45.210Z,14.44
2018-09-23T06:13:45.126Z,14.5
2018-09-23T06:14:45.161Z,14.5
2018-09-23T06:15:45.197Z,14.5
2018-09-23T06:16:45.161Z,14.5
2018-09-23T06:17:45.172Z,14.56
2018-09-23T06:18:45.148Z,14.56
2018-09-23T06:19:45.170Z,14.56
2018-09-23T06:20:45.219Z,14.56
2018-09-23T06:21:45.151Z,14.63
2018-09-23T06:22:45.153Z,14.63
2018-09-23T06:23:45.289Z,14.63
2018-09-23T06:24:45.150Z,14.56
2018-09-23T06:25:45.227Z,14.63
2018-09-23T06:26:45.308Z,14.63
2018-09-23T06:27:45.154Z,14.63
2018-09-23T06:28:45.223Z,14.69
2018-09-23T06:29:45.116Z,14.63
2018-09-23T06:30:45.152Z,14.69
2018-09-23T06:31:45.152Z,14.69
2018-09-23T06:32:45.198Z,14.75
2018-09-23T06:33:45.228Z,14.75
2018-09-23T06:34:45.366Z,14.75
2018-09-23T06:35:45.397Z,14.81
2018-09-23T06:36:45.253Z,14.81
2018-09-23T06:37:45.291Z,14.81
2018-09-23T06:38:45.770Z,14.81
2018-09-23T06:39:45.069Z,14.87
2018-09-23T06:40:45.548Z,14.87
2018-09-23T06:41:45.206Z,14.87
2018-09-23T06:42:45.105Z,14.87
2018-09-23T06:43:47.343Z,14.87
2018-09-23T06:44:45.180Z,14.94
2018-09-23T06:45:46.165Z,14.94
2018-09-23T06:46:45.080Z,14.94
2018-09-23T06:47:45.280Z,14.94
2018-09-23T06:48:45.239Z,14.94
2018-09-23T06:49:45.113Z,15
2018-09-23T06:50:45.095Z,15
2018-09-23T06:51:45.209Z,15
2018-09-23T06:52:45.174Z,15.06
2018-09-23T06:53:45.242Z,15.06
2018-09-23T06:54:45.208Z,15.06
2018-09-23T06:55:45.835Z,15.06
2018-09-23T06:56:45.414Z,15.13
2018-09-23T06:57:45.067Z,15.13
2018-09-23T06:58:45.136Z,15.13
2018-09-23T06:59:45.072Z,15.19
2018-09-23T07:00:45.246Z,15.19
2018-09-23T07:01:45.218Z,15.19
2018-09-23T07:02:45.219Z,15.25
2018-09-23T07:03:45.230Z,15.25
2018-09-23T07:04:46.222Z,15.25
2018-09-23T07:05:45.266Z,15.31
2018-09-23T07:06:45.067Z,15.31
2018-09-23T07:07:45.245Z,15.38
2018-09-23T07:08:45.354Z,15.31
2018-09-23T07:09:45.375Z,15.38
2018-09-23T07:10:45.281Z,15.38
2018-09-23T07:11:45.075Z,15.38
2018-09-23T07:12:45.305Z,15.44
2018-09-23T07:13:45.217Z,15.44
2018-09-23T07:14:45.504Z,15.5
2018-09-23T07:15:45.096Z,15.5
2018-09-23T07:16:45.224Z,15.56
2018-09-23T07:17:45.269Z,15.56
2018-09-23T07:18:45.092Z,15.56
2018-09-23T07:19:45.240Z,15.5
2018-09-23T07:20:45.157Z,15.56
2018-09-23T07:21:45.101Z,15.5
2018-09-23T07:22:45.087Z,15.5
2018-09-23T07:23:45.949Z,15.5
2018-09-23T07:24:45.103Z,15.56
2018-09-23T07:25:45.181Z,15.56
2018-09-23T07:26:45.035Z,15.56
2018-09-23T07:27:45.420Z,15.63
2018-09-23T07:28:45.116Z,15.63
2018-09-23T07:29:45.061Z,15.69
2018-09-23T07:30:45.135Z,15.63
2018-09-23T07:31:45.152Z,15.69
2018-09-23T07:32:45.081Z,15.75
2018-09-23T07:33:45.126Z,15.69
2018-09-23T07:34:45.037Z,15.75
2018-09-23T07:35:45.143Z,15.81
2018-09-23T07:36:45.806Z,15.81
2018-09-23T07:37:45.097Z,15.75
2018-09-23T07:38:45.167Z,15.88
2018-09-23T07:39:45.437Z,15.88
2018-09-23T07:40:45.020Z,15.94
2018-09-23T07:41:45.009Z,15.94
2018-09-23T07:42:45.142Z,16
2018-09-23T07:43:45.094Z,16
2018-09-23T07:44:45.230Z,15.94
2018-09-23T07:45:45.108Z,16
2018-09-23T07:46:45.149Z,16
2018-09-23T07:47:45.335Z,16
2018-09-23T07:48:45.129Z,16.06
2018-09-23T07:49:45.248Z,16.06
2018-09-23T07:50:45.484Z,16.06
2018-09-23T07:51:45.168Z,16.12
2018-09-23T07:52:45.115Z,16.12
2018-09-23T07:53:45.188Z,16.19
2018-09-23T07:54:45.539Z,16.25
2018-09-23T07:55:45.437Z,16.31
2018-09-23T07:56:45.187Z,16.37
2018-09-23T07:57:45.245Z,16.37
2018-09-23T07:58:46.227Z,16.5
2018-09-23T07:59:45.066Z,16.62
2018-09-23T08:00:45.146Z,16.69
2018-09-23T08:01:46.204Z,16.75
2018-09-23T08:02:45.186Z,16.87
2018-09-23T08:03:45.646Z,16.94
2018-09-23T08:04:45.025Z,17.06
2018-09-23T08:05:44.995Z,17.12
2018-09-23T08:06:46.205Z,17.19
2018-09-23T08:07:45.165Z,17.19
2018-09-23T08:08:45.126Z,17.19
2018-09-23T08:09:45.061Z,17.25
2018-09-23T08:10:45.234Z,17.25
2018-09-23T08:11:45.660Z,17.31
2018-09-23T08:12:47.281Z,17.37
2018-09-23T08:13:47.037Z,17.44
2018-09-23T08:14:50.461Z,17.5
2018-09-23T08:15:45.091Z,17.5
2018-09-23T08:16:45.160Z,17.56
2018-09-23T08:17:44.996Z,17.62
2018-09-23T08:18:45.342Z,17.56
2018-09-23T08:19:47.483Z,17.69
2018-09-23T08:20:45.433Z,17.69
2018-09-23T08:21:45.126Z,17.69
2018-09-23T08:22:45.103Z,17.75
2018-09-23T08:23:45.231Z,17.75
2018-09-23T08:24:44.987Z,17.75
2018-09-23T08:25:46.062Z,17.81
2018-09-23T08:26:45.005Z,17.81
2018-09-23T08:27:45.050Z,17.87
2018-09-23T08:28:45.019Z,17.87
2018-09-23T08:29:44.943Z,17.87
2018-09-23T08:30:44.979Z,17.94
2018-09-23T08:31:45.596Z,17.94
2018-09-23T08:32:45.395Z,18
2018-09-23T08:33:52.043Z,18
2018-09-23T08:34:45.218Z,18
2018-09-23T08:35:44.995Z,18
2018-09-23T08:36:45.133Z,18
2018-09-23T08:37:45.146Z,18.06
2018-09-23T08:38:44.938Z,18.12
2018-09-23T08:39:45.657Z,18.12
2018-09-23T08:40:45.003Z,18.19
2018-09-23T08:41:45.004Z,18.19
2018-09-23T08:42:45.235Z,18.25
2018-09-23T08:43:45.260Z,18.25
2018-09-23T08:44:45.044Z,18.31
2018-09-23T08:45:45.129Z,18.37
2018-09-23T08:46:44.918Z,18.31
2018-09-23T08:47:45.106Z,18.37
2018-09-23T08:48:44.871Z,18.37
2018-09-23T08:49:44.933Z,18.37
2018-09-23T08:50:44.979Z,18.44
2018-09-23T08:51:45.426Z,18.44
2018-09-23T08:52:44.934Z,18.5
2018-09-23T08:53:44.964Z,18.44
2018-09-23T08:54:44.948Z,18.5
2018-09-23T08:55:44.928Z,18.5
2018-09-23T08:56:45.000Z,18.5
2018-09-23T08:57:45.501Z,18.5
2018-09-23T08:58:45.074Z,18.5
2018-09-23T08:59:44.922Z,18.5
2018-09-23T09:00:44.955Z,18.56
2018-09-23T09:01:44.923Z,18.56
2018-09-23T09:02:44.946Z,18.5
2018-09-23T09:03:45.783Z,18.56
2018-09-23T09:04:44.965Z,18.5
2018-09-23T09:05:44.967Z,18.5
2018-09-23T09:06:44.974Z,18.5
2018-09-23T09:07:44.948Z,18.5
2018-09-23T09:08:44.963Z,18.5
2018-09-23T09:09:44.922Z,18.44
2018-09-23T09:10:45.190Z,18.5
2018-09-23T09:11:45.592Z,18.5
2018-09-23T09:12:44.909Z,18.5
2018-09-23T09:13:44.938Z,18.5
2018-09-23T09:14:44.911Z,18.44
2018-09-23T09:15:50.449Z,18.44
2018-09-23T09:16:45.220Z,18.5
2018-09-23T09:17:45.105Z,18.37
2018-09-23T09:18:47.244Z,18.44
2018-09-23T09:19:44.899Z,18.44
2018-09-23T09:20:46.340Z,18.44
2018-09-23T09:21:45.182Z,18.44
2018-09-23T09:22:44.920Z,18.37
2018-09-23T09:23:45.161Z,18.37
2018-09-23T09:24:44.947Z,18.37
2018-09-23T09:25:44.932Z,18.37
2018-09-23T09:26:46.311Z,18.44
2018-09-23T09:27:45.158Z,18.37
2018-09-23T09:28:44.968Z,18.44
2018-09-23T09:29:45.273Z,18.37
2018-09-23T09:30:45.076Z,18.37
2018-09-23T09:31:45.071Z,18.44
2018-09-23T09:32:45.070Z,18.44
2018-09-23T09:33:45.300Z,18.44
2018-09-23T09:34:45.026Z,18.44
2018-09-23T09:35:45.218Z,18.44
2018-09-23T09:36:45.180Z,18.5
2018-09-23T09:37:44.904Z,18.5
2018-09-23T09:38:45.054Z,18.56
2018-09-23T09:39:45.044Z,18.56
2018-09-23T09:40:45.131Z,18.56
2018-09-23T09:41:45.039Z,18.56
2018-09-23T09:42:44.949Z,18.62
2018-09-23T09:43:45.762Z,18.62
2018-09-23T09:44:45.363Z,18.62
2018-09-23T09:45:45.253Z,18.62
2018-09-23T09:46:45.093Z,18.69
2018-09-23T09:47:45.056Z,18.62
2018-09-23T09:48:45.264Z,18.69
2018-09-23T09:49:45.131Z,18.75
2018-09-23T09:50:45.622Z,18.69
2018-09-23T09:51:45.406Z,18.75
2018-09-23T09:52:45.118Z,18.75
2018-09-23T09:53:44.894Z,18.81
2018-09-23T09:54:45.005Z,18.75
2018-09-23T09:55:45.234Z,18.81
2018-09-23T09:56:45.020Z,18.81
2018-09-23T09:57:45.153Z,18.87
2018-09-23T09:58:45.571Z,18.81
2018-09-23T09:59:45.100Z,18.87
2018-09-23T10:00:45.366Z,18.87
2018-09-23T10:01:44.917Z,18.87
2018-09-23T10:02:44.982Z,18.94
2018-09-23T10:03:45.310Z,19
2018-09-23T10:04:45.210Z,18.94
2018-09-23T10:05:45.015Z,18.94
2018-09-23T10:06:45.016Z,19
2018-09-23T10:07:44.893Z,19
2018-09-23T10:08:45.167Z,19
2018-09-23T10:09:45.633Z,19.06
2018-09-23T10:10:44.937Z,19.12
2018-09-23T10:11:45.150Z,19.12
2018-09-23T10:12:44.923Z,19.19
2018-09-23T10:13:44.863Z,19.12
2018-09-23T10:14:45.047Z,19.19
2018-09-23T10:15:44.867Z,19.19
2018-09-23T10:16:44.835Z,19.19
2018-09-23T10:17:45.091Z,19.25
2018-09-23T10:18:44.798Z,19.31
2018-09-23T10:19:45.299Z,19.25
2018-09-23T10:20:45.147Z,19.25
2018-09-23T10:21:44.851Z,19.31
2018-09-23T10:22:46.508Z,19.37
2018-09-23T10:23:47.014Z,19.37
2018-09-23T10:24:44.821Z,19.37
2018-09-23T10:25:44.902Z,19.37
2018-09-23T10:26:44.804Z,19.37
2018-09-23T10:27:44.859Z,19.44
2018-09-23T10:28:45.045Z,19.5
2018-09-23T10:29:45.598Z,19.44
2018-09-23T10:30:44.789Z,19.44
2018-09-23T10:31:45.453Z,19.5
2018-09-23T10:32:44.993Z,19.44
2018-09-23T10:33:44.877Z,19.5
2018-09-23T10:34:44.940Z,19.56
2018-09-23T10:35:46.032Z,19.56
2018-09-23T10:36:44.996Z,19.62
2018-09-23T10:37:44.955Z,19.62
2018-09-23T10:38:44.918Z,19.69
2018-09-23T10:39:44.819Z,19.69
2018-09-23T10:40:44.872Z,19.69
2018-09-23T10:41:45.958Z,19.75
2018-09-23T10:42:44.944Z,19.75
2018-09-23T10:43:44.814Z,19.81
2018-09-23T10:44:44.830Z,19.81
2018-09-23T10:45:45.368Z,19.81
2018-09-23T10:46:44.881Z,19.94
2018-09-23T10:47:44.938Z,19.94
2018-09-23T10:48:44.892Z,19.94
2018-09-23T10:49:44.959Z,20.06
2018-09-23T10:50:45.005Z,20.06
2018-09-23T10:51:44.881Z,20.12
2018-09-23T10:52:44.933Z,20.12
2018-09-23T10:53:44.742Z,20.12
2018-09-23T10:54:44.826Z,20.19
2018-09-23T10:55:45.701Z,20.19
2018-09-23T10:56:44.809Z,20.25
2018-09-23T10:57:44.856Z,20.31
2018-09-23T10:58:44.851Z,20.31
2018-09-23T10:59:45.982Z,20.44
2018-09-23T11:00:44.844Z,20.44
2018-09-23T11:01:45.295Z,20.37
2018-09-23T11:02:48.380Z,20.44
2018-09-23T11:03:45.399Z,20.44
2018-09-23T11:04:44.818Z,20.5
2018-09-23T11:05:44.791Z,20.56
2018-09-23T11:06:44.913Z,20.56
2018-09-23T11:07:44.775Z,20.62
2018-09-23T11:08:44.921Z,20.62
2018-09-23T11:09:45.477Z,20.62
2018-09-23T11:10:44.762Z,20.62
2018-09-23T11:11:45.382Z,20.62
2018-09-23T11:12:44.795Z,20.62
2018-09-23T11:13:44.778Z,20.62
2018-09-23T11:14:44.889Z,20.62
2018-09-23T11:15:44.913Z,20.69
2018-09-23T11:16:45.080Z,20.69
2018-09-23T11:17:44.778Z,20.69
2018-09-23T11:18:44.921Z,20.75
2018-09-23T11:19:44.823Z,20.75
2018-09-23T11:20:44.758Z,20.75
2018-09-23T11:21:45.041Z,20.75
2018-09-23T11:22:44.927Z,20.75
2018-09-23T11:23:44.782Z,20.81
2018-09-23T11:24:45.444Z,20.81
2018-09-23T11:25:44.755Z,20.81
2018-09-23T11:26:44.767Z,20.88
2018-09-23T11:27:44.976Z,20.88
2018-09-23T11:28:44.787Z,20.94
2018-09-23T11:29:44.787Z,21
2018-09-23T11:30:45.413Z,20.94
2018-09-23T11:31:44.788Z,21
2018-09-23T11:32:44.743Z,21
2018-09-23T11:33:44.919Z,21
2018-09-23T11:34:45.104Z,21.06
2018-09-23T11:35:44.738Z,21.06
2018-09-23T11:36:44.913Z,21.12
2018-09-23T11:37:44.742Z,21.19
2018-09-23T11:38:44.752Z,21.19
2018-09-23T11:39:46.284Z,21.25
2018-09-23T11:40:44.722Z,21.25
2018-09-23T11:41:44.710Z,21.25
2018-09-23T11:42:45.035Z,21.31
2018-09-23T11:43:44.815Z,21.37
2018-09-23T11:44:45.043Z,21.44
2018-09-23T11:45:44.786Z,21.44
2018-09-23T11:46:44.736Z,21.44
2018-09-23T11:47:44.894Z,21.5
2018-09-23T11:48:44.819Z,21.5
2018-09-23T11:49:45.013Z,21.5
2018-09-23T11:50:44.917Z,21.56
2018-09-23T11:51:44.905Z,21.5
2018-09-23T11:52:44.737Z,21.56
2018-09-23T11:53:44.816Z,21.56
2018-09-23T11:54:44.891Z,21.56
2018-09-23T11:55:44.840Z,21.69
2018-09-23T11:56:45.141Z,21.75
2018-09-23T11:57:44.881Z,21.75
2018-09-23T11:58:45.466Z,21.75
2018-09-23T11:59:45.142Z,21.81
2018-09-23T12:00:44.935Z,21.81
2018-09-23T12:01:44.818Z,21.87
2018-09-23T12:02:45.022Z,21.94
2018-09-23T12:03:44.749Z,22
2018-09-23T12:04:44.721Z,22.06
2018-09-23T12:05:44.917Z,22.06
2018-09-23T12:06:44.922Z,22.13
2018-09-23T12:07:44.883Z,22.13
2018-09-23T12:08:44.799Z,22.13
2018-09-23T12:09:44.868Z,22.13
2018-09-23T12:10:44.936Z,22.13
2018-09-23T12:11:45.364Z,22.25
2018-09-23T12:12:44.818Z,22.31
2018-09-23T12:13:44.838Z,22.25
2018-09-23T12:14:45.474Z,22.37
2018-09-23T12:15:45.869Z,22.31
2018-09-23T12:16:44.710Z,22.37
2018-09-23T12:17:44.743Z,22.44
2018-09-23T12:18:44.835Z,22.44
2018-09-23T12:19:44.859Z,22.5
2018-09-23T12:20:45.427Z,22.56
2018-09-23T12:21:44.651Z,22.62
2018-09-23T12:22:44.892Z,22.69
2018-09-23T12:23:44.757Z,22.75
2018-09-23T12:24:44.690Z,22.75
2018-09-23T12:25:45.751Z,22.87
2018-09-23T12:26:44.789Z,22.87
2018-09-23T12:27:45.061Z,22.94
2018-09-23T12:28:44.701Z,23
2018-09-23T12:29:45.116Z,23.06
2018-09-23T12:30:44.692Z,23.12
2018-09-23T12:31:44.687Z,23.19
2018-09-23T12:32:44.709Z,23.25
2018-09-23T12:33:44.704Z,23.31
2018-09-23T12:34:44.804Z,23.38
2018-09-23T12:35:45.033Z,23.44
2018-09-23T12:36:44.739Z,23.5
2018-09-23T12:37:44.751Z,23.5
2018-09-23T12:38:44.904Z,23.5
2018-09-23T12:39:45.465Z,23.44
2018-09-23T12:40:44.754Z,23.44
2018-09-23T12:41:44.901Z,23.38
2018-09-23T12:42:44.648Z,23.38
2018-09-23T12:43:44.688Z,23.31
2018-09-23T12:44:44.725Z,23.38
2018-09-23T12:45:44.687Z,23.31
2018-09-23T12:46:44.679Z,23.31
2018-09-23T12:47:44.703Z,23.31
2018-09-23T12:48:44.985Z,23.31
2018-09-23T12:49:44.780Z,23.31
2018-09-23T12:50:45.323Z,23.25
2018-09-23T12:51:44.677Z,23.25
2018-09-23T12:52:44.652Z,23.25
2018-09-23T12:53:44.694Z,23.31
2018-09-23T12:54:44.639Z,23.38
2018-09-23T12:55:44.788Z,23.38
2018-09-23T12:56:44.673Z,23.44
2018-09-23T12:57:44.710Z,23.38
2018-09-23T12:58:44.687Z,23.38
2018-09-23T12:59:44.993Z,23.44